sensor_id;sensor_type;location;lat;lon;timestamp;P1;durP1;ratioP1;P2;durP2;ratioP2
679;SDS011;322;48.846;9.230;2023-09-18T00:01:19;12.00;;;4.97;;
679;SDS011;322;48.846;9.230;2023-09-18T00:03:47;10.50;;;4.93;;
679;SDS011;322;48.846;9.230;2023-09-18T00:06:15;9.40;;;4.03;;
679;SDS011;322;48.846;9.230;2023-09-18T00:08:44;7.87;;;3.53;;
679;SDS011;322;48.846;9.230;2023-09-18T00:11:12;11.10;;;4.43;;
679;SDS011;322;48.846;9.230;2023-09-18T00:13:40;9.80;;;4.13;;
679;SDS011;322;48.846;9.230;2023-09-18T00:16:08;9.17;;;4.00;;
679;SDS011;322;48.846;9.230;2023-09-18T00:18:36;9.67;;;4.33;;
679;SDS011;322;48.846;9.230;2023-09-18T00:21:04;10.10;;;3.97;;
679;SDS011;322;48.846;9.230;2023-09-18T00:23:33;10.60;;;4.77;;
679;SDS011;322;48.846;9.230;2023-09-18T00:26:03;12.53;;;4.87;;
679;SDS011;322;48.846;9.230;2023-09-18T00:28:31;10.90;;;5.20;;
679;SDS011;322;48.846;9.230;2023-09-18T00:30:59;12.80;;;4.93;;
679;SDS011;322;48.846;9.230;2023-09-18T00:33:27;10.57;;;4.50;;
679;SDS011;322;48.846;9.230;2023-09-18T00:35:54;10.63;;;5.07;;
679;SDS011;322;48.846;9.230;2023-09-18T00:38:22;11.17;;;4.60;;
679;SDS011;322;48.846;9.230;2023-09-18T00:40:50;13.77;;;4.50;;
679;SDS011;322;48.846;9.230;2023-09-18T00:43:20;11.30;;;4.50;;
679;SDS011;322;48.846;9.230;2023-09-18T00:45:48;9.30;;;4.20;;
679;SDS011;322;48.846;9.230;2023-09-18T00:48:16;9.73;;;4.57;;
679;SDS011;322;48.846;9.230;2023-09-18T00:50:45;10.40;;;5.23;;
679;SDS011;322;48.846;9.230;2023-09-18T00:53:14;10.60;;;4.57;;
679;SDS011;322;48.846;9.230;2023-09-18T00:55:45;12.43;;;4.23;;
679;SDS011;322;48.846;9.230;2023-09-18T00:58:14;8.67;;;3.60;;
679;SDS011;322;48.846;9.230;2023-09-18T01:00:44;9.37;;;4.53;;
679;SDS011;322;48.846;9.230;2023-09-18T01:03:12;12.63;;;5.40;;
679;SDS011;322;48.846;9.230;2023-09-18T01:05:43;10.17;;;5.53;;
679;SDS011;322;48.846;9.230;2023-09-18T01:08:11;10.07;;;4.77;;
679;SDS011;322;48.846;9.230;2023-09-18T01:10:40;8.83;;;4.60;;
679;SDS011;322;48.846;9.230;2023-09-18T01:13:17;10.03;;;4.77;;
679;SDS011;322;48.846;9.230;2023-09-18T01:15:52;8.83;;;4.23;;
679;SDS011;322;48.846;9.230;2023-09-18T01:18:24;9.73;;;4.40;;
679;SDS011;322;48.846;9.230;2023-09-18T01:20:52;9.20;;;3.87;;
679;SDS011;322;48.846;9.230;2023-09-18T01:23:21;9.53;;;4.20;;
679;SDS011;322;48.846;9.230;2023-09-18T01:25:49;12.67;;;5.30;;
679;SDS011;322;48.846;9.230;2023-09-18T01:28:17;9.80;;;4.17;;
679;SDS011;322;48.846;9.230;2023-09-18T01:30:45;8.63;;;3.93;;
679;SDS011;322;48.846;9.230;2023-09-18T01:33:13;9.50;;;3.97;;
679;SDS011;322;48.846;9.230;2023-09-18T01:35:42;11.00;;;5.00;;
679;SDS011;322;48.846;9.230;2023-09-18T01:38:12;14.80;;;5.13;;
679;SDS011;322;48.846;9.230;2023-09-18T01:40:41;14.53;;;4.70;;
679;SDS011;322;48.846;9.230;2023-09-18T01:43:10;9.53;;;4.73;;
679;SDS011;322;48.846;9.230;2023-09-18T01:45:38;10.10;;;4.20;;
679;SDS011;322;48.846;9.230;2023-09-18T01:48:06;10.80;;;4.77;;
679;SDS011;322;48.846;9.230;2023-09-18T01:50:36;10.43;;;5.20;;
679;SDS011;322;48.846;9.230;2023-09-18T01:53:06;13.63;;;5.40;;
679;SDS011;322;48.846;9.230;2023-09-18T01:55:35;10.07;;;4.70;;
679;SDS011;322;48.846;9.230;2023-09-18T01:58:04;9.63;;;5.10;;
679;SDS011;322;48.846;9.230;2023-09-18T02:00:32;11.27;;;5.93;;
679;SDS011;322;48.846;9.230;2023-09-18T02:03:01;10.37;;;5.10;;
679;SDS011;322;48.846;9.230;2023-09-18T02:05:50;9.60;;;4.47;;
679;SDS011;322;48.846;9.230;2023-09-18T02:08:18;9.77;;;5.30;;
679;SDS011;322;48.846;9.230;2023-09-18T02:10:46;10.13;;;4.57;;
679;SDS011;322;48.846;9.230;2023-09-18T02:13:16;12.37;;;5.60;;
679;SDS011;322;48.846;9.230;2023-09-18T02:15:44;10.40;;;4.30;;
679;SDS011;322;48.846;9.230;2023-09-18T02:18:11;9.37;;;4.40;;
679;SDS011;322;48.846;9.230;2023-09-18T02:20:40;11.43;;;4.03;;
679;SDS011;322;48.846;9.230;2023-09-18T02:23:08;14.00;;;5.03;;
679;SDS011;322;48.846;9.230;2023-09-18T02:25:36;11.37;;;4.60;;
679;SDS011;322;48.846;9.230;2023-09-18T02:28:05;10.97;;;4.67;;
679;SDS011;322;48.846;9.230;2023-09-18T02:30:34;9.70;;;3.90;;
679;SDS011;322;48.846;9.230;2023-09-18T02:33:02;10.30;;;4.30;;
679;SDS011;322;48.846;9.230;2023-09-18T02:35:31;9.60;;;4.03;;
679;SDS011;322;48.846;9.230;2023-09-18T02:37:59;15.23;;;4.60;;
679;SDS011;322;48.846;9.230;2023-09-18T02:40:28;10.33;;;4.70;;
679;SDS011;322;48.846;9.230;2023-09-18T02:42:56;10.90;;;4.43;;
679;SDS011;322;48.846;9.230;2023-09-18T02:45:24;10.70;;;4.17;;
679;SDS011;322;48.846;9.230;2023-09-18T02:47:54;10.30;;;4.00;;
679;SDS011;322;48.846;9.230;2023-09-18T02:50:21;11.83;;;4.37;;
679;SDS011;322;48.846;9.230;2023-09-18T02:52:49;9.87;;;4.67;;
679;SDS011;322;48.846;9.230;2023-09-18T02:55:17;12.03;;;4.03;;
679;SDS011;322;48.846;9.230;2023-09-18T02:57:45;12.93;;;4.33;;
679;SDS011;322;48.846;9.230;2023-09-18T03:00:14;14.80;;;4.40;;
679;SDS011;322;48.846;9.230;2023-09-18T03:02:42;11.73;;;3.10;;
679;SDS011;322;48.846;9.230;2023-09-18T03:05:12;9.10;;;3.20;;
679;SDS011;322;48.846;9.230;2023-09-18T03:07:40;13.50;;;3.87;;
679;SDS011;322;48.846;9.230;2023-09-18T03:10:08;14.10;;;3.60;;
679;SDS011;322;48.846;9.230;2023-09-18T03:12:40;10.63;;;3.57;;
679;SDS011;322;48.846;9.230;2023-09-18T03:15:08;12.07;;;3.30;;
679;SDS011;322;48.846;9.230;2023-09-18T03:17:37;10.63;;;3.70;;
679;SDS011;322;48.846;9.230;2023-09-18T03:20:07;11.97;;;3.70;;
679;SDS011;322;48.846;9.230;2023-09-18T03:22:37;12.50;;;3.40;;
679;SDS011;322;48.846;9.230;2023-09-18T03:25:05;12.97;;;3.90;;
679;SDS011;322;48.846;9.230;2023-09-18T03:27:34;11.27;;;4.20;;
679;SDS011;322;48.846;9.230;2023-09-18T03:30:02;12.70;;;4.37;;
679;SDS011;322;48.846;9.230;2023-09-18T03:32:30;12.00;;;3.57;;
679;SDS011;322;48.846;9.230;2023-09-18T03:34:59;16.50;;;4.47;;
679;SDS011;322;48.846;9.230;2023-09-18T03:37:26;11.67;;;3.80;;
679;SDS011;322;48.846;9.230;2023-09-18T03:39:56;12.63;;;3.50;;
679;SDS011;322;48.846;9.230;2023-09-18T03:42:24;9.97;;;3.70;;
679;SDS011;322;48.846;9.230;2023-09-18T03:44:53;12.80;;;3.70;;
679;SDS011;322;48.846;9.230;2023-09-18T03:47:21;11.60;;;4.17;;
679;SDS011;322;48.846;9.230;2023-09-18T03:49:49;12.80;;;3.80;;
679;SDS011;322;48.846;9.230;2023-09-18T03:52:17;11.40;;;3.60;;
679;SDS011;322;48.846;9.230;2023-09-18T03:54:45;9.50;;;3.40;;
679;SDS011;322;48.846;9.230;2023-09-18T03:57:14;14.20;;;3.63;;
679;SDS011;322;48.846;9.230;2023-09-18T03:59:42;13.50;;;4.40;;
679;SDS011;322;48.846;9.230;2023-09-18T04:02:10;11.73;;;3.70;;
679;SDS011;322;48.846;9.230;2023-09-18T04:04:38;12.43;;;3.83;;
679;SDS011;322;48.846;9.230;2023-09-18T04:07:06;14.30;;;4.53;;
679;SDS011;322;48.846;9.230;2023-09-18T04:09:34;16.03;;;4.30;;
679;SDS011;322;48.846;9.230;2023-09-18T04:12:03;12.43;;;3.17;;
679;SDS011;322;48.846;9.230;2023-09-18T04:14:33;11.97;;;3.80;;
679;SDS011;322;48.846;9.230;2023-09-18T04:17:02;12.77;;;3.60;;
679;SDS011;322;48.846;9.230;2023-09-18T04:19:30;13.57;;;3.47;;
679;SDS011;322;48.846;9.230;2023-09-18T04:21:58;12.40;;;3.50;;
679;SDS011;322;48.846;9.230;2023-09-18T04:24:26;12.00;;;4.80;;
679;SDS011;322;48.846;9.230;2023-09-18T04:26:58;13.90;;;4.60;;
679;SDS011;322;48.846;9.230;2023-09-18T04:29:26;10.40;;;3.47;;
679;SDS011;322;48.846;9.230;2023-09-18T04:31:55;10.50;;;3.47;;
679;SDS011;322;48.846;9.230;2023-09-18T04:34:24;13.27;;;3.60;;
679;SDS011;322;48.846;9.230;2023-09-18T04:36:52;11.03;;;3.07;;
679;SDS011;322;48.846;9.230;2023-09-18T04:39:20;10.07;;;3.47;;
679;SDS011;322;48.846;9.230;2023-09-18T04:41:48;12.43;;;4.53;;
679;SDS011;322;48.846;9.230;2023-09-18T04:44:16;12.13;;;4.10;;
679;SDS011;322;48.846;9.230;2023-09-18T04:46:44;13.77;;;3.97;;
679;SDS011;322;48.846;9.230;2023-09-18T04:49:14;12.40;;;3.97;;
679;SDS011;322;48.846;9.230;2023-09-18T04:51:42;9.37;;;3.70;;
679;SDS011;322;48.846;9.230;2023-09-18T04:54:10;14.07;;;4.80;;
679;SDS011;322;48.846;9.230;2023-09-18T04:56:38;11.23;;;4.50;;
679;SDS011;322;48.846;9.230;2023-09-18T04:59:07;15.90;;;4.57;;
679;SDS011;322;48.846;9.230;2023-09-18T05:01:35;13.47;;;4.30;;
679;SDS011;322;48.846;9.230;2023-09-18T05:04:03;11.13;;;4.10;;
679;SDS011;322;48.846;9.230;2023-09-18T05:06:32;12.60;;;4.30;;
679;SDS011;322;48.846;9.230;2023-09-18T05:09:00;13.47;;;4.63;;
679;SDS011;322;48.846;9.230;2023-09-18T05:11:29;12.87;;;4.90;;
679;SDS011;322;48.846;9.230;2023-09-18T05:13:57;14.70;;;5.47;;
679;SDS011;322;48.846;9.230;2023-09-18T05:16:25;8.97;;;3.73;;
679;SDS011;322;48.846;9.230;2023-09-18T05:18:54;10.70;;;4.40;;
679;SDS011;322;48.846;9.230;2023-09-18T05:21:22;14.30;;;4.03;;
679;SDS011;322;48.846;9.230;2023-09-18T05:23:54;12.47;;;4.90;;
679;SDS011;322;48.846;9.230;2023-09-18T05:26:22;15.87;;;5.13;;
679;SDS011;322;48.846;9.230;2023-09-18T05:28:51;11.90;;;4.07;;
679;SDS011;322;48.846;9.230;2023-09-18T05:31:21;10.37;;;3.33;;
679;SDS011;322;48.846;9.230;2023-09-18T05:33:49;11.27;;;4.80;;
679;SDS011;322;48.846;9.230;2023-09-18T05:36:17;9.70;;;3.23;;
679;SDS011;322;48.846;9.230;2023-09-18T05:38:45;13.73;;;4.47;;
679;SDS011;322;48.846;9.230;2023-09-18T05:41:14;10.23;;;3.60;;
679;SDS011;322;48.846;9.230;2023-09-18T05:43:42;13.83;;;3.67;;
679;SDS011;322;48.846;9.230;2023-09-18T05:46:10;10.60;;;3.50;;
679;SDS011;322;48.846;9.230;2023-09-18T05:48:38;10.80;;;3.70;;
679;SDS011;322;48.846;9.230;2023-09-18T05:51:06;12.43;;;3.60;;
679;SDS011;322;48.846;9.230;2023-09-18T05:53:34;10.47;;;3.10;;
679;SDS011;322;48.846;9.230;2023-09-18T05:56:04;11.03;;;3.70;;
679;SDS011;322;48.846;9.230;2023-09-18T05:58:33;15.30;;;3.40;;
679;SDS011;322;48.846;9.230;2023-09-18T06:01:02;10.40;;;3.70;;
679;SDS011;322;48.846;9.230;2023-09-18T06:03:30;11.47;;;3.80;;
679;SDS011;322;48.846;9.230;2023-09-18T06:06:01;10.67;;;3.30;;
679;SDS011;322;48.846;9.230;2023-09-18T06:08:30;11.43;;;3.17;;
679;SDS011;322;48.846;9.230;2023-09-18T06:10:58;11.37;;;3.93;;
679;SDS011;322;48.846;9.230;2023-09-18T06:13:26;13.30;;;3.30;;
679;SDS011;322;48.846;9.230;2023-09-18T06:15:56;11.90;;;2.70;;
679;SDS011;322;48.846;9.230;2023-09-18T06:18:24;11.90;;;3.47;;
679;SDS011;322;48.846;9.230;2023-09-18T06:20:52;9.73;;;3.23;;
679;SDS011;322;48.846;9.230;2023-09-18T06:23:20;10.13;;;3.40;;
679;SDS011;322;48.846;9.230;2023-09-18T06:25:48;12.50;;;2.97;;
679;SDS011;322;48.846;9.230;2023-09-18T06:28:22;13.40;;;3.70;;
679;SDS011;322;48.846;9.230;2023-09-18T06:30:50;10.57;;;3.10;;
679;SDS011;322;48.846;9.230;2023-09-18T06:33:20;10.10;;;3.53;;
679;SDS011;322;48.846;9.230;2023-09-18T06:35:49;10.60;;;3.03;;
679;SDS011;322;48.846;9.230;2023-09-18T06:38:18;12.23;;;3.37;;
679;SDS011;322;48.846;9.230;2023-09-18T06:40:46;13.90;;;4.47;;
679;SDS011;322;48.846;9.230;2023-09-18T06:43:16;10.93;;;2.90;;
679;SDS011;322;48.846;9.230;2023-09-18T06:45:44;11.70;;;3.73;;
679;SDS011;322;48.846;9.230;2023-09-18T06:48:12;12.20;;;3.40;;
679;SDS011;322;48.846;9.230;2023-09-18T06:50:41;10.80;;;2.87;;
679;SDS011;322;48.846;9.230;2023-09-18T06:53:10;9.13;;;2.90;;
679;SDS011;322;48.846;9.230;2023-09-18T06:55:37;11.00;;;4.30;;
679;SDS011;322;48.846;9.230;2023-09-18T06:58:05;10.00;;;3.13;;
679;SDS011;322;48.846;9.230;2023-09-18T07:00:33;9.60;;;2.80;;
679;SDS011;322;48.846;9.230;2023-09-18T07:03:01;12.23;;;3.40;;
679;SDS011;322;48.846;9.230;2023-09-18T07:05:30;10.87;;;2.67;;
679;SDS011;322;48.846;9.230;2023-09-18T07:07:59;15.70;;;2.80;;
679;SDS011;322;48.846;9.230;2023-09-18T07:10:29;12.40;;;3.50;;
679;SDS011;322;48.846;9.230;2023-09-18T07:12:57;11.53;;;3.50;;
679;SDS011;322;48.846;9.230;2023-09-18T07:15:25;9.90;;;3.00;;
679;SDS011;322;48.846;9.230;2023-09-18T07:17:52;11.07;;;3.67;;
679;SDS011;322;48.846;9.230;2023-09-18T07:20:21;10.80;;;3.20;;
679;SDS011;322;48.846;9.230;2023-09-18T07:22:50;14.63;;;3.80;;
679;SDS011;322;48.846;9.230;2023-09-18T07:25:19;10.50;;;2.97;;
679;SDS011;322;48.846;9.230;2023-09-18T07:27:47;12.43;;;3.60;;
679;SDS011;322;48.846;9.230;2023-09-18T07:30:15;15.83;;;3.90;;
679;SDS011;322;48.846;9.230;2023-09-18T07:32:45;10.40;;;2.90;;
679;SDS011;322;48.846;9.230;2023-09-18T07:35:14;15.17;;;3.50;;
679;SDS011;322;48.846;9.230;2023-09-18T07:37:42;9.90;;;3.00;;
679;SDS011;322;48.846;9.230;2023-09-18T07:40:13;9.20;;;3.90;;
679;SDS011;322;48.846;9.230;2023-09-18T07:42:43;15.50;;;3.60;;
679;SDS011;322;48.846;9.230;2023-09-18T07:45:11;11.10;;;2.83;;
679;SDS011;322;48.846;9.230;2023-09-18T07:47:39;11.47;;;3.00;;
679;SDS011;322;48.846;9.230;2023-09-18T07:50:07;10.07;;;2.57;;
679;SDS011;322;48.846;9.230;2023-09-18T07:52:36;11.23;;;2.10;;
679;SDS011;322;48.846;9.230;2023-09-18T07:55:04;12.10;;;2.00;;
679;SDS011;322;48.846;9.230;2023-09-18T07:57:32;11.83;;;2.43;;
679;SDS011;322;48.846;9.230;2023-09-18T08:00:02;8.63;;;2.27;;
679;SDS011;322;48.846;9.230;2023-09-18T08:02:38;9.23;;;2.03;;
679;SDS011;322;48.846;9.230;2023-09-18T08:05:06;12.87;;;2.53;;
679;SDS011;322;48.846;9.230;2023-09-18T08:07:35;11.30;;;2.20;;
679;SDS011;322;48.846;9.230;2023-09-18T08:10:03;8.30;;;2.00;;
679;SDS011;322;48.846;9.230;2023-09-18T08:12:36;10.00;;;2.00;;
679;SDS011;322;48.846;9.230;2023-09-18T08:15:06;8.73;;;2.40;;
679;SDS011;322;48.846;9.230;2023-09-18T08:17:35;8.50;;;1.57;;
679;SDS011;322;48.846;9.230;2023-09-18T08:20:04;10.13;;;1.70;;
679;SDS011;322;48.846;9.230;2023-09-18T08:22:39;10.63;;;1.80;;
679;SDS011;322;48.846;9.230;2023-09-18T08:25:07;7.70;;;1.60;;
679;SDS011;322;48.846;9.230;2023-09-18T08:27:37;10.80;;;4.40;;
679;SDS011;322;48.846;9.230;2023-09-18T08:30:10;8.70;;;1.93;;
679;SDS011;322;48.846;9.230;2023-09-18T08:32:38;9.43;;;1.50;;
679;SDS011;322;48.846;9.230;2023-09-18T08:35:07;8.30;;;1.80;;
679;SDS011;322;48.846;9.230;2023-09-18T08:37:36;7.07;;;1.10;;
679;SDS011;322;48.846;9.230;2023-09-18T08:40:04;11.57;;;2.00;;
679;SDS011;322;48.846;9.230;2023-09-18T08:42:38;8.60;;;1.83;;
679;SDS011;322;48.846;9.230;2023-09-18T08:45:09;7.57;;;1.27;;
679;SDS011;322;48.846;9.230;2023-09-18T08:47:42;7.20;;;1.10;;
679;SDS011;322;48.846;9.230;2023-09-18T08:50:10;7.33;;;1.30;;
679;SDS011;322;48.846;9.230;2023-09-18T08:52:39;7.60;;;1.30;;
679;SDS011;322;48.846;9.230;2023-09-18T08:55:08;6.57;;;1.10;;
679;SDS011;322;48.846;9.230;2023-09-18T08:57:36;8.00;;;1.27;;
679;SDS011;322;48.846;9.230;2023-09-18T09:00:07;9.20;;;1.00;;
679;SDS011;322;48.846;9.230;2023-09-18T09:02:39;9.60;;;1.80;;
679;SDS011;322;48.846;9.230;2023-09-18T09:05:07;6.60;;;1.30;;
679;SDS011;322;48.846;9.230;2023-09-18T09:07:35;7.37;;;1.50;;
679;SDS011;322;48.846;9.230;2023-09-18T09:10:03;8.30;;;1.63;;
679;SDS011;322;48.846;9.230;2023-09-18T09:12:47;9.90;;;1.60;;
679;SDS011;322;48.846;9.230;2023-09-18T09:15:17;7.80;;;1.33;;
679;SDS011;322;48.846;9.230;2023-09-18T09:17:46;8.87;;;1.37;;
679;SDS011;322;48.846;9.230;2023-09-18T09:20:15;7.53;;;1.30;;
679;SDS011;322;48.846;9.230;2023-09-18T09:22:44;9.00;;;1.70;;
679;SDS011;322;48.846;9.230;2023-09-18T09:25:22;8.70;;;2.20;;
679;SDS011;322;48.846;9.230;2023-09-18T09:27:54;7.73;;;1.23;;
679;SDS011;322;48.846;9.230;2023-09-18T09:30:23;8.00;;;1.33;;
679;SDS011;322;48.846;9.230;2023-09-18T09:32:55;7.70;;;1.63;;
679;SDS011;322;48.846;9.230;2023-09-18T09:35:24;7.30;;;1.27;;
679;SDS011;322;48.846;9.230;2023-09-18T09:37:56;8.33;;;1.50;;
679;SDS011;322;48.846;9.230;2023-09-18T09:40:27;7.87;;;1.47;;
679;SDS011;322;48.846;9.230;2023-09-18T09:42:56;9.70;;;1.60;;
679;SDS011;322;48.846;9.230;2023-09-18T09:45:28;7.57;;;1.50;;
679;SDS011;322;48.846;9.230;2023-09-18T09:47:59;8.50;;;1.60;;
679;SDS011;322;48.846;9.230;2023-09-18T09:50:28;7.70;;;1.80;;
679;SDS011;322;48.846;9.230;2023-09-18T09:52:57;8.83;;;2.00;;
679;SDS011;322;48.846;9.230;2023-09-18T09:55:25;7.97;;;1.60;;
679;SDS011;322;48.846;9.230;2023-09-18T09:57:55;7.03;;;1.40;;
679;SDS011;322;48.846;9.230;2023-09-18T10:00:26;8.83;;;1.23;;
679;SDS011;322;48.846;9.230;2023-09-18T10:03:07;8.77;;;1.47;;
679;SDS011;322;48.846;9.230;2023-09-18T10:05:37;7.67;;;1.57;;
679;SDS011;322;48.846;9.230;2023-09-18T10:08:08;7.30;;;1.57;;
679;SDS011;322;48.846;9.230;2023-09-18T10:10:39;9.57;;;1.67;;
679;SDS011;322;48.846;9.230;2023-09-18T10:13:15;9.37;;;1.50;;
679;SDS011;322;48.846;9.230;2023-09-18T10:15:45;7.87;;;1.50;;
679;SDS011;322;48.846;9.230;2023-09-18T10:18:28;9.10;;;1.93;;
679;SDS011;322;48.846;9.230;2023-09-18T10:21:09;9.50;;;2.20;;
679;SDS011;322;48.846;9.230;2023-09-18T10:23:46;9.63;;;1.83;;
679;SDS011;322;48.846;9.230;2023-09-18T10:26:24;9.50;;;1.60;;
679;SDS011;322;48.846;9.230;2023-09-18T10:28:56;7.60;;;1.60;;
679;SDS011;322;48.846;9.230;2023-09-18T10:31:26;7.47;;;1.80;;
679;SDS011;322;48.846;9.230;2023-09-18T10:33:57;7.97;;;2.00;;
679;SDS011;322;48.846;9.230;2023-09-18T10:36:25;9.10;;;2.20;;
679;SDS011;322;48.846;9.230;2023-09-18T10:38:59;7.63;;;1.77;;
679;SDS011;322;48.846;9.230;2023-09-18T10:41:33;8.30;;;1.90;;
679;SDS011;322;48.846;9.230;2023-09-18T10:44:01;9.63;;;2.30;;
679;SDS011;322;48.846;9.230;2023-09-18T10:46:30;7.27;;;1.30;;
679;SDS011;322;48.846;9.230;2023-09-18T10:49:00;8.07;;;1.90;;
679;SDS011;322;48.846;9.230;2023-09-18T10:51:30;7.63;;;1.73;;
679;SDS011;322;48.846;9.230;2023-09-18T10:53:59;8.30;;;2.20;;
679;SDS011;322;48.846;9.230;2023-09-18T10:56:28;8.40;;;2.20;;
679;SDS011;322;48.846;9.230;2023-09-18T10:58:58;8.80;;;2.20;;
679;SDS011;322;48.846;9.230;2023-09-18T11:01:27;8.20;;;2.13;;
679;SDS011;322;48.846;9.230;2023-09-18T11:04:01;9.87;;;1.77;;
679;SDS011;322;48.846;9.230;2023-09-18T11:06:30;8.17;;;2.47;;
679;SDS011;322;48.846;9.230;2023-09-18T11:09:30;8.10;;;1.80;;
679;SDS011;322;48.846;9.230;2023-09-18T11:12:03;10.73;;;2.90;;
679;SDS011;322;48.846;9.230;2023-09-18T11:14:42;8.10;;;1.30;;
679;SDS011;322;48.846;9.230;2023-09-18T11:17:31;7.23;;;1.30;;
679;SDS011;322;48.846;9.230;2023-09-18T11:20:03;9.80;;;1.80;;
679;SDS011;322;48.846;9.230;2023-09-18T11:22:35;9.37;;;1.80;;
679;SDS011;322;48.846;9.230;2023-09-18T11:28:01;7.40;;;1.53;;
679;SDS011;322;48.846;9.230;2023-09-18T11:30:33;7.40;;;1.47;;
679;SDS011;322;48.846;9.230;2023-09-18T11:33:03;6.70;;;1.60;;
679;SDS011;322;48.846;9.230;2023-09-18T11:35:33;8.20;;;1.53;;
679;SDS011;322;48.846;9.230;2023-09-18T11:38:06;10.73;;;1.70;;
679;SDS011;322;48.846;9.230;2023-09-18T11:40:36;8.87;;;1.60;;
679;SDS011;322;48.846;9.230;2023-09-18T11:43:22;6.93;;;1.77;;
679;SDS011;322;48.846;9.230;2023-09-18T11:45:53;7.77;;;1.83;;
679;SDS011;322;48.846;9.230;2023-09-18T11:48:22;7.23;;;1.70;;
679;SDS011;322;48.846;9.230;2023-09-18T11:50:58;8.20;;;1.70;;
679;SDS011;322;48.846;9.230;2023-09-18T11:53:29;7.33;;;1.50;;
679;SDS011;322;48.846;9.230;2023-09-18T11:56:02;10.50;;;1.63;;
679;SDS011;322;48.846;9.230;2023-09-18T11:58:31;7.67;;;1.53;;
679;SDS011;322;48.846;9.230;2023-09-18T12:01:12;11.30;;;1.93;;
679;SDS011;322;48.846;9.230;2023-09-18T12:03:42;7.97;;;1.50;;
679;SDS011;322;48.846;9.230;2023-09-18T12:06:12;6.87;;;1.10;;
679;SDS011;322;48.846;9.230;2023-09-18T12:08:42;6.83;;;1.53;;
679;SDS011;322;48.846;9.230;2023-09-18T12:11:10;7.57;;;1.60;;
679;SDS011;322;48.846;9.230;2023-09-18T12:13:45;7.13;;;1.50;;
679;SDS011;322;48.846;9.230;2023-09-18T12:16:14;7.00;;;1.50;;
679;SDS011;322;48.846;9.230;2023-09-18T12:18:46;9.80;;;1.50;;
679;SDS011;322;48.846;9.230;2023-09-18T12:21:17;7.57;;;1.60;;
679;SDS011;322;48.846;9.230;2023-09-18T12:23:46;7.80;;;1.53;;
679;SDS011;322;48.846;9.230;2023-09-18T12:26:15;8.13;;;1.63;;
679;SDS011;322;48.846;9.230;2023-09-18T12:28:45;9.30;;;1.73;;
679;SDS011;322;48.846;9.230;2023-09-18T12:31:14;7.40;;;1.60;;
679;SDS011;322;48.846;9.230;2023-09-18T12:33:43;7.00;;;1.37;;
679;SDS011;322;48.846;9.230;2023-09-18T12:36:13;8.90;;;1.50;;
679;SDS011;322;48.846;9.230;2023-09-18T12:38:55;9.00;;;1.77;;
679;SDS011;322;48.846;9.230;2023-09-18T12:41:23;8.20;;;1.40;;
679;SDS011;322;48.846;9.230;2023-09-18T12:43:58;7.30;;;1.23;;
679;SDS011;322;48.846;9.230;2023-09-18T12:46:26;7.37;;;1.80;;
679;SDS011;322;48.846;9.230;2023-09-18T12:48:56;8.47;;;1.83;;
679;SDS011;322;48.846;9.230;2023-09-18T12:51:29;7.33;;;1.70;;
679;SDS011;322;48.846;9.230;2023-09-18T12:53:59;8.90;;;1.60;;
679;SDS011;322;48.846;9.230;2023-09-18T12:56:27;7.50;;;1.43;;
679;SDS011;322;48.846;9.230;2023-09-18T12:58:57;9.53;;;1.50;;
679;SDS011;322;48.846;9.230;2023-09-18T13:01:40;8.40;;;1.50;;
679;SDS011;322;48.846;9.230;2023-09-18T13:04:11;8.10;;;1.40;;
679;SDS011;322;48.846;9.230;2023-09-18T13:06:41;8.13;;;1.67;;
679;SDS011;322;48.846;9.230;2023-09-18T13:09:15;7.47;;;1.30;;
679;SDS011;322;48.846;9.230;2023-09-18T13:11:53;8.60;;;1.73;;
679;SDS011;322;48.846;9.230;2023-09-18T13:14:22;9.53;;;1.73;;
679;SDS011;322;48.846;9.230;2023-09-18T13:16:51;8.40;;;1.50;;
679;SDS011;322;48.846;9.230;2023-09-18T13:19:19;7.73;;;1.40;;
679;SDS011;322;48.846;9.230;2023-09-18T13:21:48;8.80;;;1.33;;
679;SDS011;322;48.846;9.230;2023-09-18T13:24:25;9.63;;;1.63;;
679;SDS011;322;48.846;9.230;2023-09-18T13:26:54;7.60;;;1.23;;
679;SDS011;322;48.846;9.230;2023-09-18T13:29:25;9.13;;;1.10;;
679;SDS011;322;48.846;9.230;2023-09-18T13:31:53;7.63;;;1.17;;
679;SDS011;322;48.846;9.230;2023-09-18T13:34:21;6.87;;;1.40;;
679;SDS011;322;48.846;9.230;2023-09-18T13:36:50;8.27;;;1.40;;
679;SDS011;322;48.846;9.230;2023-09-18T13:39:18;7.30;;;1.60;;
679;SDS011;322;48.846;9.230;2023-09-18T13:41:46;7.73;;;1.70;;
679;SDS011;322;48.846;9.230;2023-09-18T13:44:15;7.30;;;1.47;;
679;SDS011;322;48.846;9.230;2023-09-18T13:46:47;7.97;;;1.23;;
679;SDS011;322;48.846;9.230;2023-09-18T13:49:15;8.40;;;1.30;;
679;SDS011;322;48.846;9.230;2023-09-18T13:51:43;8.20;;;1.27;;
679;SDS011;322;48.846;9.230;2023-09-18T13:54:13;8.20;;;1.50;;
679;SDS011;322;48.846;9.230;2023-09-18T13:56:41;7.13;;;1.53;;
679;SDS011;322;48.846;9.230;2023-09-18T13:59:09;8.70;;;1.33;;
679;SDS011;322;48.846;9.230;2023-09-18T14:01:37;7.90;;;1.40;;
679;SDS011;322;48.846;9.230;2023-09-18T14:04:05;7.47;;;1.47;;
679;SDS011;322;48.846;9.230;2023-09-18T14:06:33;7.03;;;1.10;;
679;SDS011;322;48.846;9.230;2023-09-18T14:09:01;6.70;;;1.30;;
679;SDS011;322;48.846;9.230;2023-09-18T14:11:33;8.30;;;1.80;;
679;SDS011;322;48.846;9.230;2023-09-18T14:14:04;6.70;;;1.30;;
679;SDS011;322;48.846;9.230;2023-09-18T14:16:32;8.47;;;1.10;;
679;SDS011;322;48.846;9.230;2023-09-18T14:19:00;7.40;;;1.03;;
679;SDS011;322;48.846;9.230;2023-09-18T14:21:28;7.07;;;1.47;;
679;SDS011;322;48.846;9.230;2023-09-18T14:23:56;7.50;;;1.20;;
679;SDS011;322;48.846;9.230;2023-09-18T14:26:24;8.93;;;1.10;;
679;SDS011;322;48.846;9.230;2023-09-18T14:28:54;6.33;;;0.90;;
679;SDS011;322;48.846;9.230;2023-09-18T14:31:22;7.63;;;1.50;;
679;SDS011;322;48.846;9.230;2023-09-18T14:33:50;7.10;;;1.10;;
679;SDS011;322;48.846;9.230;2023-09-18T14:36:18;6.90;;;1.23;;
679;SDS011;322;48.846;9.230;2023-09-18T14:38:46;7.40;;;1.40;;
679;SDS011;322;48.846;9.230;2023-09-18T14:41:14;12.90;;;1.60;;
679;SDS011;322;48.846;9.230;2023-09-18T14:43:44;8.17;;;1.63;;
679;SDS011;322;48.846;9.230;2023-09-18T14:46:14;9.13;;;1.40;;
679;SDS011;322;48.846;9.230;2023-09-18T14:48:42;6.93;;;1.30;;
679;SDS011;322;48.846;9.230;2023-09-18T14:51:10;7.10;;;0.93;;
679;SDS011;322;48.846;9.230;2023-09-18T14:53:38;8.10;;;1.10;;
679;SDS011;322;48.846;9.230;2023-09-18T14:56:07;7.33;;;1.20;;
679;SDS011;322;48.846;9.230;2023-09-18T14:58:35;7.03;;;1.03;;
679;SDS011;322;48.846;9.230;2023-09-18T15:01:02;7.20;;;1.30;;
679;SDS011;322;48.846;9.230;2023-09-18T15:03:32;6.80;;;1.10;;
679;SDS011;322;48.846;9.230;2023-09-18T15:06:00;8.83;;;1.47;;
679;SDS011;322;48.846;9.230;2023-09-18T15:08:28;8.73;;;1.10;;
679;SDS011;322;48.846;9.230;2023-09-18T15:10:56;7.20;;;1.20;;
679;SDS011;322;48.846;9.230;2023-09-18T15:13:24;6.67;;;1.10;;
679;SDS011;322;48.846;9.230;2023-09-18T15:15:52;7.10;;;1.20;;
679;SDS011;322;48.846;9.230;2023-09-18T15:18:20;7.10;;;1.30;;
679;SDS011;322;48.846;9.230;2023-09-18T15:20:50;7.27;;;1.50;;
679;SDS011;322;48.846;9.230;2023-09-18T15:23:20;7.07;;;1.30;;
679;SDS011;322;48.846;9.230;2023-09-18T15:25:49;8.30;;;1.30;;
679;SDS011;322;48.846;9.230;2023-09-18T15:28:19;6.70;;;1.20;;
679;SDS011;322;48.846;9.230;2023-09-18T15:30:49;7.63;;;1.43;;
679;SDS011;322;48.846;9.230;2023-09-18T15:33:18;7.60;;;1.80;;
679;SDS011;322;48.846;9.230;2023-09-18T15:35:50;7.17;;;1.10;;
679;SDS011;322;48.846;9.230;2023-09-18T15:38:18;6.83;;;1.37;;
679;SDS011;322;48.846;9.230;2023-09-18T15:40:47;7.83;;;1.30;;
679;SDS011;322;48.846;9.230;2023-09-18T15:43:16;7.57;;;1.50;;
679;SDS011;322;48.846;9.230;2023-09-18T15:45:44;8.00;;;1.53;;
679;SDS011;322;48.846;9.230;2023-09-18T15:48:13;7.20;;;0.90;;
679;SDS011;322;48.846;9.230;2023-09-18T15:50:41;7.27;;;1.47;;
679;SDS011;322;48.846;9.230;2023-09-18T15:53:11;6.83;;;1.33;;
679;SDS011;322;48.846;9.230;2023-09-18T15:55:40;7.60;;;1.60;;
679;SDS011;322;48.846;9.230;2023-09-18T15:58:08;6.77;;;1.10;;